Time;durP1;ratioP1;P1;durP2;ratioP2;P2;SDS_P1;SDS_P2;PMS_P1;PMS_P2;Temp;Humidity;BMP_temperature;BMP_pressure;BME280_temperature;BME280_humidity;BME280_pressure;Samples;Min_cycle;Max_cycle;Signal;HPM_P1;HPM_P2
2022/02/02 00:01:14;;;;;;;37.97;16.83;;;0.60;59.50;;;;;;5139409;27;20069;-42
2022/02/02 00:03:44;;;;;;;34.10;16.90;;;0.60;59.80;;;;;;5139929;27;20035;-33
2022/02/02 00:07:00;;;;;;;45.45;17.95;;;0.60;60.10;;;;;;5138999;27;20033;-33
2022/02/02 00:09:02;;;;;;;41.72;18.75;;;0.60;60.10;;;;;;5126649;27;20122;-42
2022/02/02 00:17:00;;;;;;;49.97;21.10;;;0.70;60.40;;;;;;5139228;27;20058;-42
2022/02/02 00:19:38;;;;;;;62.00;27.38;;;0.70;60.00;;;;;;5138941;27;20035;-33
2022/02/02 00:22:13;;;;;;;51.42;22.70;;;0.70;59.90;;;;;;5139537;27;20411;-42
2022/02/02 00:24:55;;;;;;;40.47;19.83;;;0.80;60.00;;;;;;5138553;27;20099;-33
2022/02/02 00:27:23;;;;;;;49.50;20.95;;;0.80;60.00;;;;;;5139438;27;20312;-35
2022/02/02 00:29:55;;;;;;;54.30;22.73;;;0.80;60.00;;;;;;5138758;27;20026;-32
2022/02/02 00:35:06;;;;;;;45.20;20.05;;;0.90;60.00;;;;;;5138943;27;20042;-32
2022/02/02 00:37:32;;;;;;;55.58;22.73;;;0.90;59.90;;;;;;5139193;27;20158;-43
2022/02/02 00:39:57;;;;;;;79.35;30.17;;;0.90;59.80;;;;;;5138747;27;20062;-33
2022/02/02 00:42:29;;;;;;;52.80;22.23;;;0.90;59.80;;;;;;5138886;27;20076;-33
2022/02/02 00:44:56;;;;;;;58.70;22.20;;;0.90;59.80;;;;;;5138045;27;20037;-42
2022/02/02 00:47:24;;;;;;;46.55;19.73;;;0.90;59.70;;;;;;5138725;27;20039;-32
2022/02/02 00:49:51;;;;;;;37.92;16.55;;;0.90;59.80;;;;;;5138130;27;20043;-32
2022/02/02 00:52:18;;;;;;;43.97;17.50;;;0.90;59.70;;;;;;5138843;27;20035;-36
2022/02/02 00:54:43;;;;;;;41.70;18.80;;;0.90;59.70;;;;;;5138131;27;20118;-37
2022/02/02 00:57:09;;;;;;;39.65;15.43;;;0.90;59.80;;;;;;5138441;27;20118;-33
2022/02/02 00:59:35;;;;;;;32.88;14.15;;;0.90;60.00;;;;;;5138181;27;20031;-42
2022/02/02 01:02:00;;;;;;;34.15;15.05;;;0.90;60.10;;;;;;5138794;27;20073;-32
2022/02/02 01:04:26;;;;;;;36.95;16.95;;;0.90;60.10;;;;;;5138082;27;20436;-36
2022/02/02 01:07:10;;;;;;;38.15;16.83;;;0.90;60.00;;;;;;5138106;27;20046;-33
2022/02/02 01:09:43;;;;;;;34.90;15.48;;;0.90;60.00;;;;;;5137602;27;20126;-42
2022/02/02 01:15:45;;;;;;;29.10;14.02;;;0.90;60.30;;;;;;5137879;27;20033;-32
2022/02/02 01:28:12;;;;;;;30.70;15.32;;;1.00;60.40;;;;;;5138462;27;20038;-42
2022/02/02 01:30:39;;;;;;;34.20;15.57;;;1.00;60.50;;;;;;5119571;27;20028;-43
2022/02/02 01:33:04;;;;;;;49.58;23.00;;;1.00;60.50;;;;;;5138214;27;20466;-43
2022/02/02 01:35:30;;;;;;;44.20;20.95;;;1.00;60.50;;;;;;5137360;27;20126;-43
2022/02/02 01:37:56;;;;;;;35.65;15.70;;;1.00;60.40;;;;;;5138103;27;20326;-41
2022/02/02 01:41:08;;;;;;;36.55;15.55;;;1.00;60.30;;;;;;5137622;27;20035;-32
2022/02/02 01:43:49;;;;;;;31.58;15.60;;;1.00;60.00;;;;;;5126559;27;20419;-33
2022/02/02 01:46:11;;;;;;;36.40;13.65;;;1.00;60.00;;;;;;5132944;27;20039;-42
2022/02/02 01:56:05;;;;;;;34.22;15.70;;;0.80;60.10;;;;;;5137378;27;20039;-43
2022/02/02 02:01:10;;;;;;;56.03;25.95;;;0.80;60.10;;;;;;5137150;27;20043;-43
2022/02/02 02:03:37;;;;;;;39.60;17.60;;;0.80;60.20;;;;;;5137376;27;20095;-32
2022/02/02 02:06:03;;;;;;;42.67;18.95;;;0.80;60.20;;;;;;5137101;27;20312;-33
2022/02/02 02:08:29;;;;;;;50.97;24.95;;;0.80;60.30;;;;;;5137167;27;20089;-42
2022/02/02 02:10:55;;;;;;;41.28;18.30;;;0.70;60.30;;;;;;5136943;27;20058;-42
2022/02/02 02:16:11;;;;;;;52.78;22.48;;;0.70;60.30;;;;;;5137313;27;20118;-32
2022/02/02 02:18:37;;;;;;;46.53;22.15;;;0.60;60.30;;;;;;5137471;27;20470;-33
2022/02/02 02:21:09;;;;;;;46.08;18.92;;;0.60;60.40;;;;;;5136592;27;20480;-36
2022/02/02 02:23:35;;;;;;;50.10;21.67;;;0.50;60.40;;;;;;5137160;27;20031;-42
2022/02/02 02:26:01;;;;;;;42.60;19.40;;;0.50;60.40;;;;;;5136694;27;20027;-41
2022/02/02 02:31:07;;;;;;;48.88;18.83;;;0.30;60.60;;;;;;5136098;27;20110;-32
2022/02/02 02:39:22;;;;;;;42.92;16.15;;;0.10;60.70;;;;;;5137272;28;20057;-37
2022/02/02 02:55:53;;;;;;;47.10;21.92;;;-0.20;61.40;;;;;;5118679;28;20035;-32
2022/02/02 03:31:10;;;;;;;41.70;18.58;;;-0.50;62.30;;;;;;5136417;28;20038;-32
2022/02/02 03:58:28;;;;;;;33.97;16.38;;;-0.80;62.90;;;;;;5139995;27;20031;-42
2022/02/02 04:01:17;;;;;;;34.55;16.27;;;-0.80;63.10;;;;;;5139324;27;20034;-34
2022/02/02 04:04:00;;;;;;;60.80;24.77;;;-0.80;63.00;;;;;;5139746;27;20053;-42
2022/02/02 04:06:26;;;;;;;62.03;24.25;;;-0.70;63.10;;;;;;5139489;27;20319;-34
2022/02/02 04:08:52;;;;;;;62.40;26.85;;;-0.70;63.10;;;;;;5139262;27;20050;-42
2022/02/02 04:11:35;;;;;;;86.55;30.52;;;-0.70;63.20;;;;;;5139255;27;20311;-42
2022/02/02 05:07:53;;;;;;;53.45;25.65;;;-0.60;64.00;;;;;;5138512;27;20029;-33
2022/02/02 05:28:28;;;;;;;66.78;31.67;;;-0.80;64.90;;;;;;5137562;27;20119;-34
2022/02/02 05:53:23;;;;;;;59.00;25.73;;;-0.50;66.20;;;;;;5156671;27;20035;-43
2022/02/02 05:55:50;;;;;;;47.42;21.38;;;-0.50;66.90;;;;;;5157653;27;20368;-43
2022/02/02 05:58:22;;;;;;;42.20;18.85;;;-0.50;68.00;;;;;;5157981;27;20039;-42
2022/02/02 06:00:48;;;;;;;42.15;20.42;;;-0.50;68.60;;;;;;5157555;27;20411;-33
2022/02/02 06:03:14;;;;;;;47.47;19.95;;;-0.40;69.00;;;;;;5157996;27;20048;-36
2022/02/02 06:05:42;;;;;;;47.90;19.25;;;-0.40;69.60;;;;;;5156332;27;20490;-35
2022/02/02 06:08:13;;;;;;;42.83;19.70;;;-0.30;70.00;;;;;;5157441;27;20078;-34
2022/02/02 06:10:41;;;;;;;52.25;19.27;;;-0.30;70.40;;;;;;5157250;27;20083;-43
2022/02/02 06:13:07;;;;;;;48.90;18.02;;;-0.20;70.90;;;;;;5157636;27;20027;-43
2022/02/02 06:15:34;;;;;;;47.63;17.77;;;-0.10;71.40;;;;;;5157165;27;20034;-43
2022/02/02 06:18:02;;;;;;;45.58;18.00;;;0.00;72.40;;;;;;5157460;27;20038;-33
2022/02/02 06:20:28;;;;;;;54.65;18.67;;;0.00;73.20;;;;;;5157030;27;20030;-33
2022/02/02 06:23:13;;;;;;;39.00;16.23;;;0.00;73.30;;;;;;5146973;27;20031;-43
2022/02/02 06:25:46;;;;;;;50.40;16.52;;;0.10;73.90;;;;;;5136612;27;20403;-34
2022/02/02 06:28:24;;;;;;;52.05;17.40;;;0.10;74.20;;;;;;5137009;27;20377;-33
2022/02/02 06:30:58;;;;;;;54.05;17.65;;;0.10;74.90;;;;;;5140639;27;20048;-42
2022/02/02 06:33:34;;;;;;;58.78;17.55;;;0.20;75.30;;;;;;5147446;27;20042;-33
2022/02/02 06:36:01;;;;;;;49.08;18.00;;;0.20;75.70;;;;;;5135798;28;20439;-41
2022/02/02 06:38:30;;;;;;;58.65;17.55;;;0.20;75.70;;;;;;5136802;28;20384;-38
2022/02/02 06:40:57;;;;;;;51.60;17.95;;;0.20;76.20;;;;;;5136034;28;20027;-33
2022/02/02 06:43:24;;;;;;;64.10;20.17;;;0.30;76.60;;;;;;5136630;28;20042;-33
2022/02/02 06:45:50;;;;;;;58.85;19.65;;;0.30;76.90;;;;;;5136126;28;20031;-42
2022/02/02 06:48:16;;;;;;;47.60;18.13;;;0.30;76.60;;;;;;5136592;28;20054;-33
2022/02/02 06:50:51;;;;;;;50.67;18.52;;;0.40;76.80;;;;;;5136270;28;20019;-42
2022/02/02 06:53:34;;;;;;;52.55;18.98;;;0.40;76.90;;;;;;5136563;28;20068;-33
2022/02/02 06:56:15;;;;;;;56.70;18.92;;;0.50;77.00;;;;;;5136287;28;20368;-42
2022/02/02 06:59:20;;;;;;;66.72;18.10;;;0.60;77.40;;;;;;5136776;28;20055;-42
2022/02/02 07:20:39;;;;;;;52.58;20.33;;;1.10;77.60;;;;;;5140078;27;20034;-41
2022/02/02 07:28:58;;;;;;;35.22;16.40;;;1.40;77.50;;;;;;5107376;27;20122;-33
2022/02/02 07:31:36;;;;;;;54.25;21.90;;;1.50;77.20;;;;;;5137829;27;20020;-32
2022/02/02 07:34:09;;;;;;;52.42;21.73;;;1.60;77.00;;;;;;5139835;27;20085;-42
2022/02/02 07:36:40;;;;;;;42.33;17.90;;;1.70;76.80;;;;;;5139469;27;20019;-35
2022/02/02 07:39:10;;;;;;;42.90;17.42;;;1.70;76.60;;;;;;5139433;27;20027;-33
2022/02/02 07:41:38;;;;;;;41.13;17.10;;;1.80;76.60;;;;;;5121082;27;20308;-32
2022/02/02 07:44:15;;;;;;;34.58;15.18;;;1.90;76.50;;;;;;5139469;27;20409;-42
2022/02/02 07:46:47;;;;;;;36.97;15.60;;;1.90;76.40;;;;;;5139273;27;20431;-42
2022/02/02 07:49:15;;;;;;;36.67;16.40;;;1.90;76.30;;;;;;5138914;27;20105;-42
2022/02/02 07:51:42;;;;;;;33.25;15.20;;;1.90;76.30;;;;;;5139412;27;20030;-42
2022/02/02 07:54:16;;;;;;;37.38;15.27;;;1.80;76.20;;;;;;5139103;27;20023;-43
2022/02/02 07:56:45;;;;;;;36.80;14.75;;;1.90;76.50;;;;;;5139073;27;20109;-33
2022/02/02 08:01:39;;;;;;;34.40;14.40;;;1.90;76.80;;;;;;5138860;27;20034;-42
2022/02/02 08:04:05;;;;;;;33.00;14.35;;;1.90;76.70;;;;;;5138923;27;20110;-33
2022/02/02 08:06:30;;;;;;;33.28;14.68;;;1.90;76.60;;;;;;5138584;27;20023;-43
2022/02/02 08:08:56;;;;;;;34.65;14.73;;;2.00;76.70;;;;;;5139219;27;20131;-34
2022/02/02 08:11:32;;;;;;;30.42;14.07;;;2.00;76.70;;;;;;5153815;27;20031;-35
2022/02/02 08:14:00;;;;;;;29.60;14.32;;;2.10;76.70;;;;;;5145473;27;20042;-33
2022/02/02 08:16:26;;;;;;;29.33;14.20;;;2.20;76.60;;;;;;5159469;27;20106;-41
2022/02/02 08:18:54;;;;;;;24.65;13.18;;;2.30;76.50;;;;;;5159964;27;20050;-42
2022/02/02 08:21:20;;;;;;;32.10;15.23;;;2.50;76.60;;;;;;5159196;27;20035;-42
2022/02/02 08:23:46;;;;;;;28.38;13.30;;;2.60;76.00;;;;;;5159977;27;20041;-33
2022/02/02 08:26:15;;;;;;;25.02;12.05;;;2.70;75.70;;;;;;5158660;27;20038;-43
2022/02/02 08:28:42;;;;;;;27.50;13.10;;;2.80;75.40;;;;;;5158105;27;20399;-42
2022/02/02 08:31:07;;;;;;;25.50;12.10;;;2.90;74.70;;;;;;5159033;27;20030;-42
2022/02/02 08:33:44;;;;;;;26.15;12.15;;;3.00;74.20;;;;;;5159429;27;20023;-42
2022/02/02 08:36:13;;;;;;;28.52;12.55;;;3.00;73.80;;;;;;5159241;27;20326;-33
2022/02/02 08:38:59;;;;;;;24.40;11.80;;;3.10;73.70;;;;;;5159329;27;20031;-37
2022/02/02 08:41:30;;;;;;;28.67;13.07;;;3.10;73.80;;;;;;5159099;27;20299;-42
2022/02/02 08:44:01;;;;;;;26.40;11.48;;;3.10;73.40;;;;;;5159188;27;20043;-42
2022/02/02 08:46:37;;;;;;;23.95;12.65;;;3.20;73.40;;;;;;5158857;27;20035;-43
2022/02/02 08:49:07;;;;;;;24.65;12.10;;;3.20;73.90;;;;;;5159107;27;20324;-33
2022/02/02 08:51:39;;;;;;;25.40;12.63;;;3.30;73.00;;;;;;5158753;27;20030;-43
2022/02/02 09:02:03;;;;;;;56.00;26.90;;;3.60;72.60;;;;;;5158718;27;20018;-32
2022/02/02 09:07:13;;;;;;;20.92;11.45;;;3.80;72.00;;;;;;5158784;27;20069;-33
2022/02/02 09:10:03;;;;;;;36.45;12.18;;;3.90;71.80;;;;;;5157925;27;20071;-34
2022/02/02 09:34:06;;;;;;;24.55;11.95;;;4.50;69.50;;;;;;5158332;27;20151;-42
2022/02/02 09:36:34;;;;;;;27.00;13.90;;;4.60;69.20;;;;;;5158136;27;20023;-33
2022/02/02 09:39:20;;;;;;;26.02;12.00;;;4.60;69.20;;;;;;5158109;27;20031;-33
2022/02/02 09:41:51;;;;;;;37.33;15.07;;;4.70;68.70;;;;;;5157786;27;20031;-42
2022/02/02 09:44:22;;;;;;;33.65;17.25;;;4.70;68.70;;;;;;5157667;27;20043;-42
2022/02/02 09:46:58;;;;;;;;;;;4.70;68.60;;;;;;5158354;27;20026;-33
2022/02/02 09:49:34;;;;;;;44.42;23.95;;;4.70;68.20;;;;;;5157860;27;19917;-41
2022/02/02 09:52:09;;;;;;;42.25;24.52;;;4.70;67.90;;;;;;5157866;27;20524;-33
2022/02/02 10:08:13;;;;;;;32.30;17.05;;;4.70;68.20;;;;;;5157795;27;20045;-34
2022/02/02 10:15:52;;;;;;;28.42;15.80;;;4.90;67.80;;;;;;5140722;27;20037;-33
2022/02/02 10:18:23;;;;;;;60.72;26.67;;;5.00;68.00;;;;;;5157822;27;20038;-41
2022/02/02 10:20:53;;;;;;;52.28;26.55;;;5.00;67.90;;;;;;5157480;27;20403;-40
2022/02/02 10:23:30;;;;;;;34.83;18.27;;;5.10;67.90;;;;;;5157430;27;20046;-33
2022/02/02 10:26:11;;;;;;;112.70;66.97;;;5.20;67.40;;;;;;5156730;27;20482;-32
2022/02/02 10:28:37;;;;;;;278.73;153.57;;;5.30;67.50;;;;;;5157846;27;20385;-40
2022/02/02 10:31:05;;;;;;;103.70;51.20;;;5.40;67.50;;;;;;5156928;27;20101;-42
2022/02/02 10:33:31;;;;;;;90.25;43.47;;;5.50;67.50;;;;;;5157645;27;20079;-42
2022/02/02 10:36:13;;;;;;;182.15;84.82;;;5.60;68.00;;;;;;5157141;27;20079;-42
2022/02/02 10:38:48;;;;;;;44.70;20.15;;;5.70;67.10;;;;;;5157619;27;20030;-33
2022/02/02 10:41:31;;;;;;;43.78;19.13;;;5.80;66.60;;;;;;5156674;27;20482;-33
2022/02/02 10:44:02;;;;;;;38.58;18.25;;;5.90;66.30;;;;;;5157042;27;20331;-34
2022/02/02 10:52:24;;;;;;;29.88;14.68;;;6.10;64.70;;;;;;5154745;27;20027;-42
2022/02/02 10:55:11;;;;;;;29.83;15.02;;;6.20;64.40;;;;;;5146481;27;20024;-42
2022/02/02 11:00:46;;;;;;;27.02;12.23;;;6.20;63.90;;;;;;5130923;27;20028;-33
2022/02/02 11:08:42;;;;;;;59.25;25.42;;;6.20;62.80;;;;;;5140519;27;20073;-42
2022/02/02 11:11:11;;;;;;;57.22;25.75;;;6.30;62.90;;;;;;5140166;27;20050;-41
2022/02/02 11:13:38;;;;;;;72.68;30.40;;;6.30;62.90;;;;;;5140678;27;20063;-42
2022/02/02 11:16:06;;;;;;;66.53;30.25;;;6.40;62.60;;;;;;5140316;27;20434;-33
2022/02/02 11:18:38;;;;;;;33.47;17.52;;;6.40;62.60;;;;;;5140300;27;20058;-34
2022/02/02 11:21:14;;;;;;;38.33;17.98;;;6.40;63.00;;;;;;5140017;27;20322;-34
2022/02/02 11:23:42;;;;;;;23.25;12.38;;;6.50;63.20;;;;;;5140329;27;20059;-33
2022/02/02 11:26:08;;;;;;;23.35;12.90;;;6.60;63.40;;;;;;5139431;27;20084;-42
2022/02/02 11:28:36;;;;;;;42.22;24.50;;;6.60;63.20;;;;;;5140181;27;20431;-42
2022/02/02 11:31:08;;;;;;;68.13;37.50;;;6.70;63.10;;;;;;5139557;27;20026;-41
2022/02/02 11:33:53;;;;;;;92.70;47.78;;;6.60;62.90;;;;;;5139941;27;20027;-42
2022/02/02 11:36:34;;;;;;;63.38;30.70;;;6.60;63.00;;;;;;5139324;27;20076;-42
2022/02/02 11:39:05;;;;;;;96.20;48.83;;;6.60;63.10;;;;;;5140079;27;20031;-36
2022/02/02 11:49:30;;;;;;;103.85;53.47;;;6.30;63.80;;;;;;5144879;27;20035;-42
2022/02/02 11:52:04;;;;;;;91.07;48.63;;;6.30;64.00;;;;;;5157503;27;20023;-41
2022/02/02 11:54:39;;;;;;;64.25;31.38;;;6.20;64.10;;;;;;5159600;27;20432;-41
2022/02/02 11:57:29;;;;;;;47.40;24.83;;;6.20;64.20;;;;;;5160231;27;20175;-33
2022/02/02 12:10:35;;;;;;;60.67;30.45;;;5.70;65.10;;;;;;5159708;27;20113;-42
2022/02/02 12:58:35;;;;;;;93.85;47.55;;;5.60;66.20;;;;;;5159182;27;20310;-32
2022/02/02 13:01:07;;;;;;;380.17;249.60;;;5.60;66.20;;;;;;5154265;27;20118;-42
2022/02/02 13:03:33;;;;;;;132.52;98.35;;;5.50;66.10;;;;;;5158273;27;20118;-33
2022/02/02 13:05:58;;;;;;;80.63;59.95;;;5.50;66.10;;;;;;5158526;27;20113;-33
2022/02/02 13:08:24;;;;;;;78.63;45.08;;;5.60;66.20;;;;;;5158704;27;20103;-42
2022/02/02 13:10:51;;;;;;;62.50;35.33;;;5.60;66.20;;;;;;5158440;27;20019;-43
2022/02/02 13:13:23;;;;;;;43.10;24.77;;;5.60;66.10;;;;;;5158897;27;20035;-34
2022/02/02 13:16:15;;;;;;;45.30;24.48;;;5.60;66.00;;;;;;5157864;27;20318;-42
2022/02/02 13:18:44;;;;;;;35.78;19.80;;;5.60;66.00;;;;;;5158791;27;20038;-36
2022/02/02 13:21:17;;;;;;;29.23;14.10;;;5.60;65.90;;;;;;5158144;27;20371;-42
2022/02/02 13:32:12;;;;;;;57.38;30.23;;;5.40;66.00;;;;;;5157848;27;20041;-33
2022/02/02 13:35:08;;;;;;;120.30;57.45;;;5.40;66.10;;;;;;5157994;27;20023;-42
2022/02/02 14:01:47;;;;;;;38.80;20.25;;;5.10;66.50;;;;;;5157427;27;20061;-33
2022/02/02 14:04:27;;;;;;;34.30;19.00;;;5.10;66.60;;;;;;5151399;27;20034;-33
2022/02/02 14:33:33;;;;;;;43.33;20.63;;;4.80;66.60;;;;;;5136090;28;20370;-33
2022/02/02 14:36:02;;;;;;;41.47;21.77;;;4.80;66.60;;;;;;5136007;28;20063;-37
2022/02/02 14:41:43;;;;;;;39.28;20.48;;;4.60;66.70;;;;;;5122423;28;20074;-44
2022/02/02 14:44:19;;;;;;;40.50;20.80;;;4.60;66.90;;;;;;5135919;28;20117;-33
2022/02/02 14:49:37;;;;;;;44.80;23.00;;;4.40;67.10;;;;;;5136353;28;20019;-34
2022/02/02 14:52:20;;;;;;;44.30;22.17;;;4.40;67.20;;;;;;5135485;28;20071;-34
2022/02/02 14:55:12;;;;;;;54.55;25.13;;;4.30;67.30;;;;;;5136237;27;20027;-34
2022/02/02 15:25:23;;;;;;;55.58;28.25;;;4.00;68.40;;;;;;5135808;28;20502;-33
2022/02/02 15:27:53;;;;;;;60.10;30.95;;;3.90;68.40;;;;;;5135216;28;20031;-44
2022/02/02 15:30:32;;;;;;;66.22;32.00;;;3.90;68.50;;;;;;5135872;28;20319;-44
2022/02/02 15:33:00;;;;;;;58.10;29.67;;;3.80;68.60;;;;;;5151254;27;20035;-33
2022/02/02 15:35:27;;;;;;;72.80;34.03;;;3.80;68.80;;;;;;5136077;27;20384;-32
2022/02/02 15:40:27;;;;;;;88.55;42.15;;;3.80;69.00;;;;;;5139520;27;20426;-33
2022/02/02 15:58:57;;;;;;;64.82;33.20;;;3.60;69.40;;;;;;5138584;27;20054;-43
2022/02/02 16:04:12;;;;;;;69.63;35.90;;;3.60;69.50;;;;;;5139214;27;20169;-42
2022/02/02 16:06:37;;;;;;;74.95;35.28;;;3.60;69.60;;;;;;5139076;27;20027;-43
2022/02/02 16:11:37;;;;;;;57.15;30.33;;;3.50;69.70;;;;;;5137813;27;20110;-43
2022/02/02 16:14:06;;;;;;;71.82;35.40;;;3.50;69.80;;;;;;5118485;27;20153;-45
2022/02/02 16:37:41;;;;;;;73.88;33.42;;;3.40;70.80;;;;;;5138931;27;20343;-43
2022/02/02 16:40:11;;;;;;;105.22;52.45;;;3.40;70.80;;;;;;5138283;27;20031;-44
2022/02/02 16:45:28;;;;;;;110.30;48.00;;;3.40;71.10;;;;;;5138215;27;20053;-43
2022/02/02 16:47:54;;;;;;;157.90;61.33;;;3.40;71.20;;;;;;5138893;27;20040;-43
2022/02/02 16:50:23;;;;;;;167.43;63.35;;;3.40;71.10;;;;;;5137051;27;20045;-44
2022/02/02 16:52:52;;;;;;;138.00;61.70;;;3.40;71.20;;;;;;5138490;27;20122;-34
2022/02/02 17:33:12;;;;;;;319.48;141.00;;;3.40;71.30;;;;;;5138053;27;20031;-44
2022/02/02 18:20:32;;;;;;;130.35;56.03;;;3.30;71.20;;;;;;5136665;27;20415;-32
2022/02/02 18:26:03;;;;;;;108.60;48.40;;;3.20;71.30;;;;;;5136664;27;20092;-32
2022/02/02 18:28:46;;;;;;;76.88;36.42;;;3.20;71.30;;;;;;5137349;27;20296;-34
2022/02/02 18:33:56;;;;;;;143.30;66.30;;;3.20;71.40;;;;;;5137293;27;20031;-33
2022/02/02 18:54:40;;;;;;;92.32;41.28;;;3.10;71.70;;;;;;5104490;28;20032;-44
2022/02/02 18:57:39;;;;;;;77.75;34.92;;;3.10;71.60;;;;;;5136936;28;20035;-34
2022/02/02 19:00:21;;;;;;;80.30;36.03;;;3.10;71.50;;;;;;5136454;28;20444;-33
2022/02/02 19:40:34;;;;;;;97.82;43.38;;;2.80;71.50;;;;;;5140206;27;20064;-43
2022/02/02 20:04:33;;;;;;;77.93;36.42;;;2.40;72.30;;;;;;5139846;27;20038;-46
2022/02/02 20:09:51;;;;;;;76.40;37.80;;;2.40;72.30;;;;;;5138996;27;20073;-43
2022/02/02 20:12:13;;;;;;;86.05;38.97;;;2.50;72.50;;;;;;5139010;27;20130;-43
2022/02/02 20:14:39;;;;;;;75.80;36.15;;;2.50;72.40;;;;;;5139198;27;20050;-35
2022/02/02 20:17:09;;;;;;;59.00;29.17;;;2.50;72.50;;;;;;5139460;27;20226;-38
2022/02/02 20:19:38;;;;;;;64.40;28.25;;;2.60;72.60;;;;;;5139150;27;20035;-34
2022/02/02 20:22:04;;;;;;;58.42;26.73;;;2.60;72.70;;;;;;5139679;27;20039;-33
2022/02/02 20:24:38;;;;;;;62.25;29.60;;;2.70;72.70;;;;;;5137150;27;20167;-33
2022/02/02 20:27:03;;;;;;;55.25;25.70;;;2.70;72.70;;;;;;5139324;27;20438;-33
2022/02/02 20:29:31;;;;;;;61.97;30.45;;;2.70;72.70;;;;;;5138737;27;20019;-43
2022/02/02 20:31:57;;;;;;;68.95;31.50;;;2.80;72.70;;;;;;5139217;27;20039;-32
2022/02/02 20:34:23;;;;;;;69.57;32.03;;;2.80;72.80;;;;;;5138798;27;20433;-43
2022/02/02 20:36:49;;;;;;;63.63;32.30;;;2.90;72.90;;;;;;5139036;27;20414;-33
2022/02/02 20:39:33;;;;;;;86.93;40.45;;;2.90;72.80;;;;;;5138900;27;20027;-32
2022/02/02 20:42:03;;;;;;;54.10;26.27;;;2.90;72.80;;;;;;5139224;27;20058;-43
2022/02/02 20:44:47;;;;;;;49.25;25.48;;;3.00;72.90;;;;;;5138711;27;20070;-35
2022/02/02 21:02:11;;;;;;;51.15;22.65;;;3.20;72.60;;;;;;5138236;27;20107;-36
2022/02/02 21:06:44;;;;;;;41.90;21.65;;;3.30;72.50;;;;;;5138272;27;20027;-32
2022/02/02 21:14:10;;;;;;;44.55;20.52;;;3.20;72.60;;;;;;5138207;27;20054;-42
2022/02/02 21:16:39;;;;;;;45.20;19.73;;;3.20;72.80;;;;;;5137896;27;20139;-43
2022/02/02 21:19:08;;;;;;;42.08;20.80;;;3.30;73.10;;;;;;5137958;27;20035;-32
2022/02/02 21:21:47;;;;;;;48.25;21.67;;;3.30;73.30;;;;;;5137989;27;20027;-43
2022/02/02 21:24:33;;;;;;;41.17;19.67;;;3.30;73.40;;;;;;5138155;27;20319;-44
2022/02/02 21:27:17;;;;;;;41.13;19.17;;;3.30;73.60;;;;;;5138187;27;20035;-43
2022/02/02 21:29:42;;;;;;;39.50;18.40;;;3.30;73.60;;;;;;5137472;27;20072;-43
2022/02/02 21:32:09;;;;;;;38.83;18.67;;;3.40;73.60;;;;;;5138260;27;20114;-34
2022/02/02 21:34:36;;;;;;;37.63;18.58;;;3.40;73.50;;;;;;5137676;27;20038;-33
2022/02/02 21:37:05;;;;;;;36.88;19.10;;;3.40;73.40;;;;;;5137763;27;20089;-33
2022/02/02 21:39:33;;;;;;;37.65;18.00;;;3.40;73.30;;;;;;5137337;27;20083;-43
2022/02/02 21:41:59;;;;;;;42.47;18.45;;;3.40;73.20;;;;;;5138018;27;20042;-32
2022/02/02 21:44:25;;;;;;;38.40;17.73;;;3.40;73.00;;;;;;5137499;27;20319;-32
2022/02/02 21:46:53;;;;;;;44.55;19.33;;;3.30;72.90;;;;;;5137433;27;20111;-43
2022/02/02 21:49:21;;;;;;;44.15;19.85;;;3.30;72.90;;;;;;5137438;27;20027;-32
2022/02/02 21:51:57;;;;;;;34.97;17.80;;;3.30;73.00;;;;;;5137375;27;20031;-37
2022/02/02 21:54:23;;;;;;;42.13;19.38;;;3.20;72.90;;;;;;5137573;27;20357;-43
2022/02/02 21:56:49;;;;;;;42.70;18.73;;;3.20;73.00;;;;;;5137480;27;20027;-36
2022/02/02 21:59:14;;;;;;;42.22;20.45;;;3.10;73.00;;;;;;5137387;27;20031;-33
2022/02/02 22:01:40;;;;;;;45.10;20.50;;;3.10;73.10;;;;;;5137368;27;20023;-32
2022/02/02 22:04:05;;;;;;;40.28;19.48;;;3.00;73.20;;;;;;5137341;27;20031;-33
2022/02/02 22:06:31;;;;;;;45.58;21.52;;;3.00;73.30;;;;;;5136782;27;20033;-32
2022/02/02 22:08:57;;;;;;;43.83;21.70;;;3.00;73.40;;;;;;5137313;27;20051;-43
2022/02/02 22:11:23;;;;;;;44.28;21.20;;;2.90;73.40;;;;;;5137276;27;20027;-43
2022/02/02 22:14:01;;;;;;;44.88;22.15;;;2.90;73.40;;;;;;5137621;27;20035;-33
2022/02/02 22:16:27;;;;;;;49.78;22.15;;;2.80;73.60;;;;;;5137283;27;20031;-33
2022/02/02 22:18:53;;;;;;;47.92;22.95;;;2.80;73.70;;;;;;5137224;27;20034;-43
2022/02/02 22:21:20;;;;;;;55.20;24.80;;;2.80;73.80;;;;;;5137035;27;20098;-42
2022/02/02 22:23:46;;;;;;;48.13;22.48;;;2.70;73.80;;;;;;5137538;27;20031;-33
2022/02/02 22:26:12;;;;;;;48.83;22.25;;;2.70;74.00;;;;;;5136414;27;20030;-43
2022/02/02 22:28:38;;;;;;;55.88;25.35;;;2.70;74.00;;;;;;5137503;27;20039;-34
2022/02/02 22:31:04;;;;;;;49.65;23.40;;;2.70;74.10;;;;;;5136912;27;20023;-43
2022/02/02 22:33:32;;;;;;;62.88;27.42;;;2.60;74.10;;;;;;5137217;27;20027;-45
2022/02/02 22:35:58;;;;;;;49.20;24.90;;;2.60;74.20;;;;;;5136875;27;20031;-43
2022/02/02 22:38:24;;;;;;;58.72;25.35;;;2.60;74.30;;;;;;5137436;27;20032;-43
2022/02/02 22:40:50;;;;;;;63.33;28.45;;;2.60;74.50;;;;;;5136457;27;20026;-37
2022/02/02 22:43:16;;;;;;;55.67;25.02;;;2.50;74.40;;;;;;5137270;28;20027;-33
2022/02/02 22:45:44;;;;;;;55.00;25.38;;;2.50;74.40;;;;;;5136411;28;20415;-32
2022/02/02 22:48:14;;;;;;;49.05;24.08;;;2.50;74.60;;;;;;5138437;27;20035;-32
2022/02/02 22:50:39;;;;;;;57.08;25.30;;;2.50;74.70;;;;;;5141055;27;20378;-43
2022/02/02 22:53:05;;;;;;;67.30;28.02;;;2.50;74.80;;;;;;5141021;27;20058;-32
2022/02/02 22:55:31;;;;;;;52.88;25.70;;;2.50;75.00;;;;;;5140589;27;20031;-43
2022/02/02 22:57:56;;;;;;;48.45;23.70;;;2.50;75.00;;;;;;5141357;27;20043;-32
2022/02/02 23:00:25;;;;;;;57.28;27.92;;;2.50;75.10;;;;;;5140731;27;20030;-45
2022/02/02 23:02:54;;;;;;;72.13;30.92;;;2.50;75.20;;;;;;5141070;27;20107;-43
2022/02/02 23:05:26;;;;;;;51.25;25.98;;;2.50;75.20;;;;;;5140362;27;20042;-43
2022/02/02 23:07:52;;;;;;;52.75;23.35;;;2.50;75.30;;;;;;5140666;27;20331;-33
2022/02/02 23:10:20;;;;;;;55.72;28.23;;;2.50;75.20;;;;;;5140699;27;20034;-43
2022/02/02 23:12:47;;;;;;;75.43;35.80;;;2.50;75.20;;;;;;5140833;27;20038;-33
2022/02/02 23:15:19;;;;;;;77.00;35.75;;;2.50;75.10;;;;;;5140221;27;20058;-32
2022/02/02 23:17:45;;;;;;;72.15;32.13;;;2.50;74.90;;;;;;5140832;27;20378;-39
2022/02/02 23:20:11;;;;;;;61.00;28.00;;;2.50;74.70;;;;;;5140469;27;20027;-33
2022/02/02 23:22:36;;;;;;;66.00;30.90;;;2.50;74.40;;;;;;5140406;27;20065;-43
2022/02/02 23:25:07;;;;;;;77.07;34.25;;;2.40;74.40;;;;;;5140077;27;20456;-33
2022/02/02 23:27:34;;;;;;;76.15;34.60;;;2.40;74.10;;;;;;5140631;27;20041;-45
2022/02/02 23:30:01;;;;;;;66.95;29.75;;;2.40;73.90;;;;;;5140223;27;20408;-43
2022/02/02 23:32:28;;;;;;;62.65;28.30;;;2.40;74.10;;;;;;5140645;27;20092;-34
2022/02/02 23:34:54;;;;;;;62.28;27.90;;;2.30;74.20;;;;;;5139875;27;20031;-43
2022/02/02 23:37:21;;;;;;;79.85;36.40;;;2.30;74.30;;;;;;5140412;27;20035;-43
2022/02/02 23:39:47;;;;;;;120.30;44.30;;;2.30;74.40;;;;;;5139753;27;20027;-34
2022/02/02 23:42:26;;;;;;;75.32;31.92;;;2.40;74.50;;;;;;5140341;27;20031;-43
2022/02/02 23:44:52;;;;;;;77.53;33.42;;;2.30;74.60;;;;;;5139482;27;20030;-33
2022/02/02 23:47:20;;;;;;;64.22;29.52;;;2.40;74.70;;;;;;5139984;27;20426;-32
2022/02/02 23:49:54;;;;;;;59.63;26.67;;;2.40;74.70;;;;;;5139757;27;20031;-33
2022/02/02 23:52:26;;;;;;;57.72;26.10;;;2.40;74.80;;;;;;5139999;27;20161;-44
2022/02/02 23:54:56;;;;;;;59.90;25.85;;;2.40;74.90;;;;;;5139869;27;20029;-33
2022/02/02 23:57:43;;;;;;;51.05;23.73;;;2.30;74.80;;;;;;5140180;27;20114;-33
